Time;durP1;ratioP1;P1;durP2;ratioP2;P2;SDS_P1;SDS_P2;PMS_P1;PMS_P2;Temp;Humidity;BMP_temperature;BMP_pressure;BME280_temperature;BME280_humidity;BME280_pressure;Samples;Min_cycle;Max_cycle;Signal;HPM_P1;HPM_P2
2021/10/09 05:00:41;;;;;;;0.53;0.40;;;;;;;6.00;100.00;95395.44;6056553;23;20089;31
2021/10/09 05:03:07;;;;;;;0.43;0.30;;;;;;;5.98;100.00;95401.63;4942817;29;20464;-79
2021/10/09 05:05:32;;;;;;;0.75;0.40;;;;;;;5.93;100.00;95402.03;4921443;29;20035;-80
2021/10/09 05:07:57;;;;;;;0.35;0.30;;;;;;;6.01;100.00;95403.94;4936019;29;20031;-79
2021/10/09 05:10:25;;;;;;;0.63;0.20;;;;;;;5.99;100.00;95406.66;4936348;29;20088;-78
2021/10/09 05:12:51;;;;;;;0.50;0.50;;;;;;;5.94;100.00;95401.06;4934686;29;20023;-78
2021/10/09 05:15:16;;;;;;;0.35;0.30;;;;;;;6.01;100.00;95394.47;4952296;29;20034;-78
2021/10/09 05:17:42;;;;;;;0.40;0.30;;;;;;;5.95;100.00;95395.00;4934168;29;20472;-78
2021/10/09 05:20:07;;;;;;;0.22;0.22;;;;;;;6.01;100.00;95401.34;4951691;29;20408;-79
2021/10/09 05:22:33;;;;;;;0.20;0.20;;;;;;;6.04;100.00;95401.09;4935964;29;20023;-79
2021/10/09 05:24:58;;;;;;;0.25;0.25;;;;;;;6.00;100.00;95399.75;4935989;29;20031;-79
2021/10/09 05:27:26;;;;;;;0.60;0.45;;;;;;;6.00;100.00;95407.47;4951465;29;20616;-78
2021/10/09 05:29:52;;;;;;;0.75;0.30;;;;;;;6.20;100.00;95404.78;4934471;29;20435;-78
2021/10/09 05:32:24;;;;;;;0.30;0.30;;;;;;;6.12;100.00;95421.84;4953043;29;20127;-79
2021/10/09 05:34:49;;;;;;;0.25;0.25;;;;;;;6.17;100.00;95404.25;4951255;29;20039;-78
2021/10/09 05:37:15;;;;;;;1.17;0.63;;;;;;;6.25;100.00;95410.38;4935315;29;20027;-78
2021/10/09 05:39:41;;;;;;;0.30;0.30;;;;;;;6.26;100.00;95421.47;4950676;29;20031;-78
2021/10/09 05:42:07;;;;;;;0.52;0.30;;;;;;;6.25;100.00;95417.25;4934891;29;20447;-78
2021/10/09 05:44:32;;;;;;;0.40;0.30;;;;;;;6.30;100.00;95421.06;4949850;29;20035;-78
2021/10/09 05:46:57;;;;;;;0.20;0.20;;;;;;;6.33;100.00;95419.97;4937568;29;20035;-80
2021/10/09 05:49:23;;;;;;;0.30;0.30;;;;;;;6.25;100.00;95412.94;4954865;29;20050;-80
2021/10/09 06:59:33;;;;;;;0.52;0.40;;;;;;;6.95;100.00;95429.06;4923335;29;20432;-76
2021/10/09 07:01:50;;;;;;;1.27;0.50;;;;;;;7.10;100.00;95437.97;4946582;29;20086;-74
2021/10/09 07:04:15;;;;;;;3.13;0.40;;;;;;;7.10;100.00;95423.34;4946288;29;20038;-75
2021/10/09 07:06:42;;;;;;;0.90;0.40;;;;;;;7.17;100.00;95419.28;4929963;28;20032;-75
2021/10/09 07:09:07;;;;;;;0.40;0.40;;;;;;;7.20;100.00;95429.31;4931793;29;20038;-75
2021/10/09 07:11:33;;;;;;;1.23;0.40;;;;;;;7.22;100.00;95426.59;4944320;28;20039;-75
2021/10/09 07:13:58;;;;;;;2.25;0.40;;;;;;;7.34;100.00;95436.59;4933313;28;20528;-75
2021/10/09 07:16:24;;;;;;;0.50;0.40;;;;;;;7.36;100.00;95439.84;4951740;28;20134;-75
2021/10/09 07:18:49;;;;;;;0.35;0.32;;;;;;;7.14;100.00;95444.50;4935085;28;20039;-75
2021/10/09 07:21:15;;;;;;;0.60;0.60;;;;;;;7.19;100.00;95450.06;4935607;28;20031;-75
2021/10/09 07:23:40;;;;;;;0.65;0.40;;;;;;;7.34;100.00;95452.06;4951102;28;20404;-75
2021/10/09 07:26:07;;;;;;;0.50;0.50;;;;;;;7.36;100.00;95449.34;4935706;28;20023;-75
2021/10/09 07:28:33;;;;;;;0.50;0.50;;;;;;;7.37;100.00;95458.69;4934386;28;20030;-76
2021/10/09 07:30:58;;;;;;;0.47;0.43;;;;;;;7.34;100.00;95457.22;4935697;28;20037;-76
2021/10/09 07:33:24;;;;;;;0.35;0.35;;;;;;;7.34;100.00;95441.75;4968089;28;20045;-76
2021/10/09 07:35:49;;;;;;;0.50;0.40;;;;;;;7.33;100.00;95440.13;4917879;28;20031;-76
2021/10/09 07:38:15;;;;;;;1.38;0.40;;;;;;;7.41;100.00;95440.25;4929608;28;20023;-76
2021/10/09 07:40:40;;;;;;;0.50;0.50;;;;;;;7.49;100.00;95447.28;4913378;28;20035;-75
2021/10/09 07:43:06;;;;;;;0.30;0.30;;;;;;;7.60;100.00;95439.38;4962880;28;20057;-77
2021/10/09 07:45:32;;;;;;;0.45;0.45;;;;;;;7.73;100.00;95431.34;4916110;28;20090;-77
2021/10/09 07:47:58;;;;;;;0.50;0.50;;;;;;;7.48;100.00;95421.66;4919243;28;20037;-76
2021/10/09 07:50:23;;;;;;;0.75;0.38;;;;;;;7.72;100.00;95434.88;4934905;28;20038;-77
2021/10/09 07:52:49;;;;;;;0.70;0.60;;;;;;;7.50;100.00;95432.63;4969021;28;20416;-76
2021/10/09 07:55:14;;;;;;;0.60;0.60;;;;;;;7.63;100.00;95433.97;4950852;28;20027;-76
2021/10/09 07:57:40;;;;;;;0.40;0.35;;;;;;;7.33;100.00;95434.97;4950800;28;20058;-77
2021/10/09 08:00:06;;;;;;;0.85;0.60;;;;;;;7.34;100.00;95451.25;4967023;28;20035;-77
2021/10/09 08:02:34;;;;;;;1.17;1.00;;;;;;;7.47;100.00;95420.84;4950942;28;20094;-76
2021/10/09 08:04:59;;;;;;;0.75;0.55;;;;;;;7.32;100.00;95417.09;4920340;28;20101;-77
2021/10/09 08:07:25;;;;;;;0.60;0.50;;;;;;;7.28;100.00;95413.16;4967989;28;20529;-77
2021/10/09 08:09:50;;;;;;;0.55;0.55;;;;;;;7.56;100.00;95430.31;4934978;28;20529;-77
2021/10/09 08:12:16;;;;;;;1.63;0.50;;;;;;;7.44;100.00;95426.28;4919065;28;20027;-77
2021/10/09 08:14:41;;;;;;;0.68;0.50;;;;;;;7.46;100.00;95426.94;4950857;28;20041;-76
2021/10/09 08:17:07;;;;;;;2.05;0.43;;;;;;;7.68;100.00;95423.19;4952753;28;20027;-77
2021/10/09 08:19:32;;;;;;;0.90;0.50;;;;;;;7.85;100.00;95423.28;4936173;28;20034;-78
2021/10/09 08:22:01;;;;;;;1.05;0.80;;;;;;;7.26;100.00;95430.50;4952083;28;20023;-78
2021/10/09 08:24:39;;;;;;;0.77;0.45;;;;;;;7.55;100.00;95430.44;4935315;28;20479;-78
2021/10/09 08:40:42;;;;;;;1.55;0.50;;;;;;;7.76;100.00;95446.53;4942546;28;20373;-78
2021/10/09 08:43:08;;;;;;;1.25;0.50;;;;;;;7.86;100.00;95449.88;4935990;28;20024;-77
2021/10/09 08:45:33;;;;;;;1.33;0.80;;;;;;;7.51;100.00;95447.16;4938407;28;20031;-77
2021/10/09 08:47:59;;;;;;;0.90;0.40;;;;;;;7.52;100.00;95444.41;4938623;28;20034;-77
2021/10/09 08:50:24;;;;;;;0.32;0.32;;;;;;;7.63;100.00;95446.03;4920933;29;20031;-78
2021/10/09 08:53:08;;;;;;;0.70;0.60;;;;;;;7.79;100.00;95452.22;4936794;29;20043;-78
2021/10/09 08:55:35;;;;;;;0.52;0.43;;;;;;;7.39;100.00;95446.47;4922856;28;20027;-78
2021/10/09 08:58:05;;;;;;;0.57;0.50;;;;;;;7.38;100.00;95450.81;4919809;29;20023;-80
2021/10/09 09:01:10;;;;;;;1.58;0.50;;;;;;;7.58;100.00;95459.31;4905901;29;20098;-78
2021/10/09 09:04:33;;;;;;;1.50;0.70;;;;;;;7.65;100.00;95457.00;4939838;28;20046;-78
2021/10/09 09:26:46;;;;;;;0.30;0.30;;;;;;;7.99;97.81;95428.94;4938730;28;20038;-76
2021/10/09 09:34:02;;;;;;;0.60;0.60;;;;;;;8.20;99.05;95424.31;4948572;28;20466;-78
2021/10/09 09:41:31;;;;;;;1.27;0.70;;;;;;;7.91;100.00;95439.94;4945969;28;20098;-76
2021/10/09 09:43:57;;;;;;;1.92;0.70;;;;;;;8.08;100.00;95448.69;4939925;29;20035;-76
2021/10/09 09:46:28;;;;;;;1.15;1.05;;;;;;;7.90;100.00;95448.63;4950889;28;20109;-77
2021/10/09 09:48:53;;;;;;;1.42;1.15;;;;;;;8.40;100.00;95446.53;4966282;28;20023;-77
2021/10/09 09:51:20;;;;;;;0.52;0.52;;;;;;;8.49;100.00;95445.66;4950953;28;20420;-77
2021/10/09 09:53:46;;;;;;;0.77;0.73;;;;;;;8.24;100.00;95448.88;4935433;28;20034;-77
2021/10/09 09:56:12;;;;;;;0.90;0.85;;;;;;;7.90;100.00;95446.88;4920816;28;20436;-78
2021/10/09 09:58:42;;;;;;;2.55;0.80;;;;;;;7.93;100.00;95454.31;4937044;28;20089;-77
2021/10/09 10:01:09;;;;;;;1.30;0.70;;;;;;;7.85;100.00;95456.81;4936318;28;20042;-77
2021/10/09 10:03:34;;;;;;;0.88;0.77;;;;;;;8.05;100.00;95464.47;4952111;28;20027;-77
2021/10/09 10:06:01;;;;;;;1.10;1.00;;;;;;;8.02;100.00;95462.97;4950851;28;20543;-77
2021/10/09 10:08:27;;;;;;;0.55;0.55;;;;;;;7.95;100.00;95455.00;4947587;28;20043;-77
2021/10/09 10:10:53;;;;;;;1.00;0.90;;;;;;;8.00;100.00;95453.75;4948531;28;20390;-77
2021/10/09 10:13:21;;;;;;;2.05;0.70;;;;;;;8.34;100.00;95457.44;4948931;29;20207;-77
2021/10/09 10:15:47;;;;;;;0.77;0.70;;;;;;;8.28;100.00;95450.25;4916832;29;20050;-77
2021/10/09 10:18:13;;;;;;;0.70;0.63;;;;;;;8.23;100.00;95449.84;4932460;29;20034;-78
2021/10/09 10:20:46;;;;;;;0.50;0.50;;;;;;;8.27;100.00;95435.69;4951146;29;20357;-77
2021/10/09 10:23:12;;;;;;;0.50;0.40;;;;;;;8.41;100.00;95448.16;4932433;29;20023;-77
2021/10/09 10:25:38;;;;;;;1.00;0.50;;;;;;;8.52;100.00;95447.13;4928824;29;20162;-77
2021/10/09 10:28:09;;;;;;;1.02;0.60;;;;;;;8.57;100.00;95448.31;4922496;29;20039;-77
2021/10/09 10:30:42;;;;;;;0.40;0.40;;;;;;;8.31;100.00;95447.41;4917292;28;20070;-77
2021/10/09 10:33:09;;;;;;;0.57;0.50;;;;;;;8.29;100.00;95454.44;4948709;28;20023;-77
2021/10/09 10:35:35;;;;;;;0.60;0.52;;;;;;;8.28;100.00;95451.06;4949842;29;20035;-77
2021/10/09 10:38:24;;;;;;;0.70;0.60;;;;;;;8.14;100.00;95453.28;4950455;28;20118;-78
2021/10/09 10:41:01;;;;;;;1.52;0.50;;;;;;;8.26;100.00;95457.28;4935967;29;20424;-78
2021/10/09 10:43:30;;;;;;;0.30;0.30;;;;;;;8.41;100.00;95451.53;4950494;28;20046;-77
2021/10/09 10:46:00;;;;;;;0.50;0.40;;;;;;;8.49;100.00;95445.66;4950718;28;20565;-77
2021/10/09 10:49:35;;;;;;;;;;;;;;;8.67;100.00;95451.63;4912505;29;20031;-77
2021/10/09 10:51:35;;;;;;;1.00;0.32;;;;;;;8.56;100.00;95449.28;4948205;29;20442;-77
2021/10/09 10:59:33;;;;;;;0.50;0.50;;;;;;;8.37;100.00;95437.31;4948158;28;20040;-78
2021/10/09 11:02:14;;;;;;;1.67;0.57;;;;;;;8.36;100.00;95447.75;4926356;29;20036;-78
2021/10/09 11:04:54;;;;;;;0.95;0.60;;;;;;;8.36;100.00;95448.56;4928411;29;20405;-78
2021/10/09 11:07:26;;;;;;;0.80;0.40;;;;;;;8.40;100.00;95444.75;4907350;29;20055;-78
2021/10/09 11:09:51;;;;;;;0.60;0.40;;;;;;;8.42;100.00;95436.84;4946132;29;20039;-78
2021/10/09 11:12:29;;;;;;;0.50;0.50;;;;;;;8.24;100.00;95441.16;4928784;29;20122;-78
2021/10/09 11:15:06;;;;;;;1.60;0.60;;;;;;;8.36;100.00;95443.41;4908991;28;20122;-77
2021/10/09 11:17:39;;;;;;;0.98;0.80;;;;;;;8.26;100.00;95442.63;4927585;29;20055;-79
2021/10/09 11:20:06;;;;;;;1.42;0.68;;;;;;;8.34;100.00;95445.34;4942242;29;20039;-77
2021/10/09 11:22:40;;;;;;;1.35;0.70;;;;;;;8.42;100.00;95442.84;4918584;29;20028;-77
2021/10/09 11:25:06;;;;;;;1.40;0.60;;;;;;;8.42;100.00;95440.25;4912523;29;20066;-77
2021/10/09 11:27:36;;;;;;;0.57;0.50;;;;;;;8.38;100.00;95431.16;4930231;29;20055;-77
2021/10/09 11:30:03;;;;;;;0.50;0.50;;;;;;;8.50;100.00;95438.72;4912614;29;20027;-78
2021/10/09 11:32:33;;;;;;;2.05;0.50;;;;;;;8.45;100.00;95441.72;4942146;29;20525;-77
2021/10/09 11:34:58;;;;;;;0.75;0.60;;;;;;;8.45;100.00;95439.13;4911545;29;20032;-77
2021/10/09 11:37:25;;;;;;;0.80;0.60;;;;;;;8.43;100.00;95435.91;4914684;29;20037;-77
2021/10/09 11:39:52;;;;;;;0.43;0.40;;;;;;;8.41;100.00;95441.19;4916036;29;20491;-77
2021/10/09 11:42:24;;;;;;;0.55;0.50;;;;;;;8.48;100.00;95438.84;4949174;28;20393;-78
2021/10/09 11:45:27;;;;;;;1.08;0.63;;;;;;;8.36;100.00;95432.28;4929948;29;20333;-76
2021/10/09 11:56:07;;;;;;;1.95;0.98;;;;;;;8.44;100.00;95445.28;4939603;29;20049;-76
2021/10/09 11:58:54;;;;;;;0.50;0.50;;;;;;;8.52;100.00;95435.03;4937914;29;20480;-77
2021/10/09 12:01:33;;;;;;;0.50;0.50;;;;;;;8.48;100.00;95438.84;4927614;29;20402;-75
2021/10/09 12:04:16;;;;;;;1.73;0.63;;;;;;;8.31;100.00;95429.34;4920508;29;20032;-77
2021/10/09 12:06:43;;;;;;;1.02;0.70;;;;;;;8.58;100.00;95442.19;4924395;29;20031;-76
2021/10/09 12:09:10;;;;;;;0.60;0.60;;;;;;;8.45;100.00;95434.78;4938893;28;20428;-77
2021/10/09 12:11:35;;;;;;;0.50;0.50;;;;;;;8.48;100.00;95433.69;4908458;28;20027;-76
2021/10/09 12:14:05;;;;;;;0.68;0.68;;;;;;;8.46;100.00;95436.44;4908527;28;20424;-77
2021/10/09 12:16:36;;;;;;;1.27;0.52;;;;;;;8.52;100.00;95447.13;4933688;28;20389;-77
2021/10/09 12:19:09;;;;;;;0.50;0.50;;;;;;;8.36;100.00;95442.59;4945126;28;20473;-77
2021/10/09 12:21:44;;;;;;;0.50;0.50;;;;;;;8.27;100.00;95436.50;4969662;28;20035;-77
2021/10/09 12:24:27;;;;;;;0.75;0.63;;;;;;;8.10;100.00;95439.03;4954902;28;20054;-76
2021/10/09 12:27:12;;;;;;;0.50;0.50;;;;;;;8.01;100.00;95445.88;4939233;28;20027;-76
2021/10/09 12:30:00;;;;;;;0.73;0.73;;;;;;;8.07;100.00;95441.91;4973058;28;20035;-77
2021/10/09 12:32:26;;;;;;;0.80;0.80;;;;;;;7.96;100.00;95446.28;4958174;28;20030;-77
2021/10/09 12:35:15;;;;;;;1.10;0.70;;;;;;;7.79;100.00;95452.22;4934017;29;20449;-78
2021/10/09 12:37:56;;;;;;;0.85;0.85;;;;;;;7.93;100.00;95450.91;4936331;28;20437;-77
2021/10/09 12:40:22;;;;;;;2.15;0.80;;;;;;;7.99;100.00;95452.94;4952258;29;20496;-77
2021/10/09 12:42:51;;;;;;;0.50;0.50;;;;;;;7.95;100.00;95457.59;4933751;29;20063;-77
2021/10/09 12:45:17;;;;;;;0.63;0.63;;;;;;;7.71;100.00;95439.19;4934338;29;20069;-77
2021/10/09 12:47:43;;;;;;;0.73;0.70;;;;;;;7.83;100.00;95450.16;4927865;28;20028;-77
2021/10/09 12:50:09;;;;;;;0.60;0.60;;;;;;;7.70;100.00;95458.22;4929567;28;20084;-77
2021/10/09 12:52:34;;;;;;;1.33;1.00;;;;;;;7.78;100.00;95467.81;4939553;28;20039;-77
2021/10/09 12:55:02;;;;;;;0.73;0.55;;;;;;;7.78;100.00;95467.81;4944698;28;20469;-77
2021/10/09 12:57:28;;;;;;;0.98;0.60;;;;;;;7.79;100.00;95472.03;4950467;29;20100;-77
2021/10/09 12:59:54;;;;;;;3.55;0.65;;;;;;;7.71;100.00;95474.47;4933275;29;20556;-78
2021/10/09 13:02:19;;;;;;;0.70;0.70;;;;;;;7.63;100.00;95464.88;4934698;29;20070;-77
2021/10/09 13:04:45;;;;;;;0.80;0.73;;;;;;;7.64;100.00;95483.75;4950237;28;20023;-77
2021/10/09 13:07:10;;;;;;;0.63;0.63;;;;;;;7.53;100.00;95479.56;4950024;29;20044;-77
2021/10/09 13:09:36;;;;;;;0.93;0.82;;;;;;;7.52;100.00;95479.69;4933559;29;20382;-77
2021/10/09 13:12:03;;;;;;;0.80;0.80;;;;;;;7.61;100.00;95492.53;4949847;29;20062;-77
2021/10/09 13:14:29;;;;;;;1.30;0.93;;;;;;;7.41;100.00;95483.25;4934280;29;20028;-77
2021/10/09 13:16:54;;;;;;;3.92;0.80;;;;;;;7.48;100.00;95504.91;4949769;29;20046;-77
2021/10/09 13:19:20;;;;;;;1.58;0.82;;;;;;;7.68;100.00;95501.34;4949978;29;20035;-77
2021/10/09 13:21:45;;;;;;;0.60;0.60;;;;;;;7.57;100.00;95505.88;4948923;29;20127;-77
2021/10/09 13:24:11;;;;;;;2.35;0.98;;;;;;;7.60;100.00;95498.66;4935281;29;20051;-77
2021/10/09 13:26:37;;;;;;;0.73;0.70;;;;;;;7.50;100.00;95508.19;4913273;29;20468;-77
2021/10/09 13:29:03;;;;;;;0.95;0.80;;;;;;;7.36;100.00;95512.00;4915204;29;20008;-77
2021/10/09 13:31:29;;;;;;;0.75;0.70;;;;;;;7.48;100.00;95522.16;4946397;29;20070;-78
2021/10/09 13:33:56;;;;;;;1.13;0.70;;;;;;;7.56;100.00;95525.66;4926750;29;20035;-77
2021/10/09 13:36:22;;;;;;;0.60;0.60;;;;;;;7.40;100.00;95533.97;4933877;29;20450;-77
2021/10/09 13:38:47;;;;;;;0.45;0.40;;;;;;;7.58;100.00;95535.84;4933103;29;20134;-78
2021/10/09 13:41:13;;;;;;;0.40;0.40;;;;;;;7.47;100.00;95531.66;4951471;28;20029;-78
2021/10/09 13:43:38;;;;;;;0.45;0.38;;;;;;;7.53;100.00;95528.50;4951247;29;20031;-79
2021/10/09 13:46:04;;;;;;;1.17;0.60;;;;;;;7.57;100.00;95531.63;4952046;28;20023;-79
2021/10/09 13:48:30;;;;;;;0.95;0.60;;;;;;;7.46;100.00;95535.16;4933453;29;20039;-78
2021/10/09 13:50:55;;;;;;;0.60;0.50;;;;;;;7.45;100.00;95532.75;4932443;29;20032;-78
2021/10/09 13:53:21;;;;;;;2.90;0.98;;;;;;;7.35;100.00;95525.81;4941556;28;20074;-78
2021/10/09 13:55:47;;;;;;;0.93;0.82;;;;;;;7.24;100.00;95530.28;4926009;29;20035;-77
2021/10/09 13:58:14;;;;;;;2.00;1.80;;;;;;;7.37;100.00;95530.84;4938787;29;20028;-77
2021/10/09 14:00:40;;;;;;;1.30;1.00;;;;;;;7.53;100.00;95520.78;4928681;29;20031;-77
2021/10/09 14:03:06;;;;;;;0.70;0.60;;;;;;;7.48;100.00;95520.38;4938231;29;20470;-75
2021/10/09 14:05:32;;;;;;;1.50;0.60;;;;;;;7.28;100.00;95523.94;4924187;29;20074;-76
2021/10/09 14:07:57;;;;;;;0.70;0.70;;;;;;;7.14;100.00;95526.91;4931287;29;20116;-76
2021/10/09 14:10:23;;;;;;;0.70;0.63;;;;;;;7.17;100.00;95530.03;4904714;29;20039;-78
2021/10/09 14:12:48;;;;;;;0.80;0.80;;;;;;;7.23;100.00;95537.22;4934576;28;20038;-76
2021/10/09 14:15:13;;;;;;;1.38;1.27;;;;;;;7.12;100.00;95539.13;4926100;29;20047;-76
2021/10/09 14:17:39;;;;;;;1.80;1.67;;;;;;;7.23;100.00;95542.38;4922914;29;20028;-75
2021/10/09 14:20:06;;;;;;;2.78;2.58;;;;;;;7.31;100.00;95541.69;4948501;29;20039;-75
2021/10/09 14:22:31;;;;;;;2.75;2.08;;;;;;;7.44;100.00;95544.81;4929934;29;20035;-75
2021/10/09 14:24:57;;;;;;;1.60;1.50;;;;;;;7.30;100.00;95547.78;4930046;29;20698;-76
2021/10/09 14:27:23;;;;;;;1.20;1.10;;;;;;;7.24;100.00;95528.53;4911713;29;20397;-76
2021/10/09 14:29:49;;;;;;;2.10;1.63;;;;;;;7.37;100.00;95531.66;4931524;29;20054;-76
2021/10/09 14:32:14;;;;;;;1.83;1.60;;;;;;;7.39;100.00;95539.22;4929723;29;20038;-75
2021/10/09 14:34:40;;;;;;;1.60;1.50;;;;;;;7.36;100.00;95542.09;4946435;28;20050;-75
2021/10/09 14:37:05;;;;;;;2.20;1.20;;;;;;;7.41;100.00;95532.19;4945324;28;20038;-75
2021/10/09 14:39:31;;;;;;;1.50;1.40;;;;;;;7.47;100.00;95534.22;4931378;29;20039;-76
2021/10/09 14:41:56;;;;;;;3.67;1.23;;;;;;;7.59;100.00;95534.88;4935821;29;20533;-76
2021/10/09 14:44:22;;;;;;;1.45;1.13;;;;;;;7.67;100.00;95537.59;4930969;29;20027;-76
2021/10/09 14:49:24;;;;;;;1.75;1.33;;;;;;;7.74;100.00;95520.59;4940142;29;20062;-75
2021/10/09 15:16:52;;;;;;;4.20;3.92;;;;;;;7.33;100.00;95544.94;4940436;29;20079;-78
2021/10/09 15:19:18;;;;;;;1.35;1.25;;;;;;;7.38;100.00;95548.72;4938766;29;20061;-79
2021/10/09 15:21:43;;;;;;;1.05;0.80;;;;;;;7.43;100.00;95543.16;4948640;28;20031;-76
2021/10/09 15:24:09;;;;;;;1.05;0.90;;;;;;;7.47;100.00;95543.72;4932655;29;20097;-76
2021/10/09 15:26:35;;;;;;;0.93;0.88;;;;;;;7.58;100.00;95618.31;4947629;28;20035;-76
2021/10/09 15:29:03;;;;;;;1.38;1.27;;;;;;;7.45;100.00;95623.72;4946056;28;20078;-75
2021/10/09 15:31:28;;;;;;;1.02;0.93;;;;;;;7.60;100.00;95629.28;4930651;29;20034;-77
2021/10/09 15:33:54;;;;;;;0.98;0.98;;;;;;;7.64;100.00;95628.09;4911689;29;20098;-76
2021/10/09 15:36:19;;;;;;;1.85;1.48;;;;;;;7.68;100.00;95634.56;4910850;29;20037;-76
2021/10/09 15:38:45;;;;;;;2.88;1.58;;;;;;;7.63;100.00;95631.59;4927357;29;20042;-75
2021/10/09 15:41:11;;;;;;;2.00;1.90;;;;;;;7.55;100.00;95634.84;4944842;28;20024;-79
2021/10/09 15:43:36;;;;;;;2.90;1.92;;;;;;;7.47;100.00;95621.00;5299328;23;20059;-76
2021/10/09 15:46:02;;;;;;;2.10;1.90;;;;;;;7.52;100.00;95624.81;4945277;28;20023;-76
2021/10/09 15:48:27;;;;;;;2.03;1.90;;;;;;;7.56;100.00;95621.03;4966617;28;20031;-78
2021/10/09 15:50:53;;;;;;;2.33;1.58;;;;;;;7.60;100.00;95627.53;4988042;28;20034;-79
2021/10/09 15:53:20;;;;;;;4.03;2.20;;;;;;;7.61;100.00;95642.03;4981553;28;20060;-79
2021/10/09 15:55:45;;;;;;;2.75;2.50;;;;;;;7.51;100.00;95630.94;4971694;28;20019;-79
2021/10/09 15:58:11;;;;;;;3.33;2.58;;;;;;;7.61;100.00;95638.66;4954763;28;20146;-79
2021/10/09 16:00:36;;;;;;;8.18;2.25;;;;;;;7.64;100.00;95635.81;4971237;28;20030;-78
2021/10/09 16:03:02;;;;;;;2.63;1.90;;;;;;;7.61;100.00;95634.31;4971507;28;20019;-77
2021/10/09 16:05:27;;;;;;;1.85;1.73;;;;;;;7.60;100.00;95655.06;4956326;28;20027;-78
2021/10/09 16:07:53;;;;;;;3.55;3.25;;;;;;;7.60;100.00;95661.03;4972727;28;20023;-77
2021/10/09 16:10:18;;;;;;;2.65;2.00;;;;;;;7.62;100.00;95664.28;4972846;28;20030;-78
2021/10/09 16:12:44;;;;;;;3.40;3.10;;;;;;;7.64;100.00;95670.13;4953593;28;20121;-78
2021/10/09 16:15:09;;;;;;;3.08;2.78;;;;;;;7.64;100.00;95669.31;4965996;28;20046;-78
2021/10/09 16:17:35;;;;;;;5.40;2.80;;;;;;;7.65;100.00;95666.59;4963433;28;20087;-78
2021/10/09 16:20:01;;;;;;;3.38;2.55;;;;;;;7.62;100.00;95678.94;4960777;28;20507;-78
2021/10/09 16:22:27;;;;;;;2.10;1.90;;;;;;;7.61;100.00;95672.97;4963482;28;20055;-77
2021/10/09 16:24:53;;;;;;;2.35;1.33;;;;;;;7.62;100.00;95677.19;4972613;28;20046;-78
2021/10/09 16:27:18;;;;;;;2.03;1.30;;;;;;;7.68;100.00;95686.94;4971266;28;20045;-78
2021/10/09 16:29:44;;;;;;;0.65;0.65;;;;;;;7.68;100.00;95686.94;4956269;28;20091;-78
2021/10/09 16:32:09;;;;;;;1.20;1.10;;;;;;;7.66;100.00;95688.03;4972298;28;20031;-77
2021/10/09 16:34:36;;;;;;;18.90;17.08;;;;;;;7.66;100.00;95680.31;4968747;28;20034;-77
2021/10/09 16:37:02;;;;;;;20.08;18.08;;;;;;;7.68;100.00;95688.69;4965658;28;20030;-75
2021/10/09 16:39:28;;;;;;;8.90;8.23;;;;;;;7.68;100.00;95699.84;4952632;28;20504;-75
2021/10/09 16:41:55;;;;;;;7.68;6.72;;;;;;;7.70;100.00;95705.69;4954010;28;20038;-76
2021/10/09 16:44:20;;;;;;;6.13;5.63;;;;;;;7.68;100.00;95710.16;4969982;28;20122;-78
2021/10/09 16:46:46;;;;;;;6.38;5.78;;;;;;;7.72;100.00;95703.78;4968965;28;20058;-79
2021/10/09 16:49:12;;;;;;;3.20;2.90;;;;;;;7.68;100.00;95701.59;4963285;28;20027;-78
2021/10/09 16:51:37;;;;;;;2.30;2.05;;;;;;;7.66;100.00;95701.75;4963063;28;20112;-78
2021/10/09 16:54:03;;;;;;;1.70;1.60;;;;;;;7.61;100.00;95698.72;4961940;28;20110;-78
2021/10/09 16:56:29;;;;;;;2.65;0.75;;;;;;;7.61;100.00;95703.88;4963411;28;20034;-79
2021/10/09 16:58:54;;;;;;;0.55;0.55;;;;;;;7.57;100.00;95701.72;4959506;28;20028;-78
2021/10/09 17:01:19;;;;;;;0.70;0.70;;;;;;;7.65;100.00;95694.13;4961119;28;20019;-80
2021/10/09 17:03:45;;;;;;;1.10;1.00;;;;;;;7.65;100.00;95700.09;4966849;28;20408;-80
2021/10/09 17:06:10;;;;;;;1.15;0.82;;;;;;;7.64;100.00;95705.41;4974176;28;20031;-78
2021/10/09 17:08:38;;;;;;;1.20;1.10;;;;;;;7.66;100.00;95712.06;4971065;28;20502;-78
2021/10/09 17:11:04;;;;;;;1.98;0.90;;;;;;;7.64;100.00;95711.34;4971679;28;20027;-78
2021/10/09 17:13:29;;;;;;;2.45;0.65;;;;;;;7.66;100.00;95717.22;4968678;28;20038;-79
2021/10/09 17:15:55;;;;;;;1.02;0.80;;;;;;;7.66;100.00;95721.53;4971893;28;20034;-78
2021/10/09 17:18:20;;;;;;;1.17;0.60;;;;;;;7.63;100.00;95719.22;4970623;28;20041;-79
2021/10/09 17:20:46;;;;;;;0.95;0.50;;;;;;;7.55;100.00;95722.47;4972328;28;20382;-79
2021/10/09 17:23:11;;;;;;;0.82;0.63;;;;;;;7.53;100.00;95721.81;4971989;28;20122;-78
2021/10/09 17:25:39;;;;;;;1.85;0.47;;;;;;;7.43;100.00;95720.97;4966033;28;20408;-79
2021/10/09 17:28:05;;;;;;;1.40;0.40;;;;;;;7.46;100.00;95717.28;4960550;28;20042;-78
2021/10/09 17:30:31;;;;;;;0.75;0.30;;;;;;;7.51;100.00;95718.56;4967034;28;20404;-79
2021/10/09 17:32:57;;;;;;;2.00;0.40;;;;;;;7.52;100.00;95719.34;4968424;28;20084;-80
2021/10/09 17:35:24;;;;;;;0.30;0.30;;;;;;;7.51;100.00;95717.72;4967677;28;20471;-79
2021/10/09 17:37:50;;;;;;;1.35;0.50;;;;;;;7.49;100.00;95715.28;4972100;28;20031;-80
2021/10/09 17:40:15;;;;;;;1.70;0.40;;;;;;;7.56;100.00;95718.13;4970894;28;20068;-79
2021/10/09 17:42:41;;;;;;;0.47;0.40;;;;;;;7.54;100.00;95720.03;4971295;28;20508;-79
2021/10/09 17:45:07;;;;;;;1.20;0.60;;;;;;;7.51;100.00;95720.31;4970053;28;20679;-78
2021/10/09 17:47:32;;;;;;;3.05;2.85;;;;;;;7.42;100.00;95722.72;4971517;28;20056;-79
2021/10/09 17:49:57;;;;;;;2.67;1.00;;;;;;;7.43;100.00;95714.06;4960818;28;20054;-75
2021/10/09 17:52:23;;;;;;;2.15;1.90;;;;;;;7.47;100.00;95734.41;4960530;28;20046;-75
2021/10/09 17:54:49;;;;;;;4.88;2.85;;;;;;;7.49;100.00;95741.03;4970087;28;20460;-75
2021/10/09 17:57:14;;;;;;;2.83;2.53;;;;;;;7.54;100.00;95746.63;4970523;28;20031;-76
2021/10/09 17:59:40;;;;;;;2.97;2.67;;;;;;;7.53;100.00;95742.41;4971736;28;20030;-75
2021/10/09 18:02:06;;;;;;;3.85;3.45;;;;;;;7.52;100.00;95740.78;4970511;28;20023;-75
2021/10/09 18:04:31;;;;;;;4.85;4.45;;;;;;;7.34;100.00;95739.78;4977290;28;20027;-76
2021/10/09 18:06:57;;;;;;;3.70;3.40;;;;;;;7.49;100.00;95737.66;4972772;28;20034;-77
2021/10/09 18:09:23;;;;;;;3.38;3.08;;;;;;;7.55;100.00;95743.09;4972506;28;20069;-77
2021/10/09 18:11:48;;;;;;;3.90;3.60;;;;;;;7.52;100.00;95747.69;4971559;28;20058;-77
2021/10/09 18:14:13;;;;;;;6.00;3.55;;;;;;;7.57;100.00;95750.69;4971330;28;20034;-76
2021/10/09 18:16:39;;;;;;;4.43;4.03;;;;;;;7.59;100.00;95749.63;4969963;28;20023;-75
2021/10/09 18:19:06;;;;;;;3.10;2.90;;;;;;;7.54;100.00;95745.81;4970214;28;20058;-76
2021/10/09 18:21:31;;;;;;;2.80;2.60;;;;;;;7.54;100.00;95746.63;4970119;28;20034;-75
2021/10/09 18:23:57;;;;;;;3.13;1.88;;;;;;;7.53;100.00;95744.16;4970499;28;20049;-76
2021/10/09 18:26:22;;;;;;;2.22;1.90;;;;;;;7.57;100.00;95736.06;4961598;28;20053;-75
2021/10/09 18:28:48;;;;;;;2.22;1.80;;;;;;;7.64;100.00;95736.34;4966623;28;20062;-75
2021/10/09 18:31:13;;;;;;;1.73;1.63;;;;;;;7.62;100.00;95733.06;4970016;28;20082;-76
2021/10/09 18:33:39;;;;;;;1.98;1.85;;;;;;;7.63;100.00;95735.53;4969075;28;20694;-77
2021/10/09 18:36:04;;;;;;;2.10;1.90;;;;;;;7.66;100.00;95735.25;4964141;28;20110;-79
2021/10/09 18:38:30;;;;;;;3.95;2.30;;;;;;;7.69;100.00;95732.41;4968297;28;20513;-78
2021/10/09 18:40:55;;;;;;;1.70;1.60;;;;;;;7.67;100.00;95731.75;4963664;28;20038;-78
2021/10/09 18:43:21;;;;;;;3.78;3.50;;;;;;;7.66;100.00;95727.53;4964557;28;20027;-78
2021/10/09 18:45:46;;;;;;;5.47;5.13;;;;;;;7.65;100.00;95731.03;4967911;28;20579;-78
2021/10/09 18:48:12;;;;;;;8.98;8.13;;;;;;;7.64;100.00;95731.97;4967085;28;20033;-78
2021/10/09 18:50:37;;;;;;;5.80;5.40;;;;;;;7.65;100.00;95725.06;4959000;28;20038;-78
2021/10/09 18:53:03;;;;;;;6.30;5.80;;;;;;;7.54;100.00;95720.03;4968600;28;20031;-79
2021/10/09 18:55:28;;;;;;;5.32;4.30;;;;;;;7.57;100.00;95733.47;4967969;28;20366;-78
2021/10/09 18:57:54;;;;;;;4.70;4.35;;;;;;;7.61;100.00;95716.78;4953728;28;20443;-78
2021/10/09 19:00:19;;;;;;;4.35;4.05;;;;;;;7.57;100.00;95724.94;4968039;28;20031;-78
2021/10/09 19:02:45;;;;;;;4.28;3.05;;;;;;;7.59;100.00;95717.88;4968874;28;20035;-79
2021/10/09 19:05:10;;;;;;;3.13;2.92;;;;;;;7.63;100.00;95722.63;4968397;28;20038;-76
2021/10/09 19:07:36;;;;;;;3.50;3.20;;;;;;;7.62;100.00;95727.91;4967103;28;20421;-76